sensor_id;sensor_type;location;lat;lon;timestamp;P1;durP1;ratioP1;P2;durP2;ratioP2
13102;SDS011;52970;46.752;17.108;2022-12-15T00:01:36;50.27;;;29.40;;
13102;SDS011;52970;46.752;17.108;2022-12-15T00:04:20;57.73;;;32.73;;
13102;SDS011;52970;46.752;17.108;2022-12-15T00:07:04;55.00;;;32.23;;
13102;SDS011;52970;46.752;17.108;2022-12-15T00:09:47;50.93;;;30.73;;
13102;SDS011;52970;46.752;17.108;2022-12-15T00:12:31;55.53;;;33.10;;
13102;SDS011;52970;46.752;17.108;2022-12-15T00:15:15;53.87;;;32.93;;
13102;SDS011;52970;46.752;17.108;2022-12-15T00:18:03;55.47;;;33.17;;
13102;SDS011;52970;46.752;17.108;2022-12-15T00:20:48;54.03;;;32.17;;
13102;SDS011;52970;46.752;17.108;2022-12-15T00:23:32;54.00;;;31.73;;
13102;SDS011;52970;46.752;17.108;2022-12-15T00:26:16;50.57;;;31.80;;
13102;SDS011;52970;46.752;17.108;2022-12-15T00:29:00;49.90;;;31.70;;
13102;SDS011;52970;46.752;17.108;2022-12-15T00:31:43;54.43;;;30.97;;
13102;SDS011;52970;46.752;17.108;2022-12-15T00:34:27;52.53;;;31.57;;
13102;SDS011;52970;46.752;17.108;2022-12-15T00:37:11;57.07;;;34.90;;
13102;SDS011;52970;46.752;17.108;2022-12-15T00:39:55;54.07;;;32.40;;
13102;SDS011;52970;46.752;17.108;2022-12-15T00:42:26;55.13;;;33.07;;
13102;SDS011;52970;46.752;17.108;2022-12-15T00:44:52;54.97;;;33.40;;
13102;SDS011;52970;46.752;17.108;2022-12-15T00:47:18;53.60;;;32.17;;
13102;SDS011;52970;46.752;17.108;2022-12-15T00:49:43;61.67;;;35.77;;
13102;SDS011;52970;46.752;17.108;2022-12-15T00:52:26;61.43;;;34.20;;
13102;SDS011;52970;46.752;17.108;2022-12-15T00:55:10;59.10;;;33.80;;
13102;SDS011;52970;46.752;17.108;2022-12-15T00:57:54;59.27;;;35.23;;
13102;SDS011;52970;46.752;17.108;2022-12-15T01:00:38;59.07;;;35.13;;
13102;SDS011;52970;46.752;17.108;2022-12-15T01:03:23;58.20;;;33.43;;
13102;SDS011;52970;46.752;17.108;2022-12-15T01:06:07;59.30;;;34.67;;
13102;SDS011;52970;46.752;17.108;2022-12-15T01:08:51;58.73;;;33.13;;
13102;SDS011;52970;46.752;17.108;2022-12-15T01:11:35;59.63;;;34.80;;
13102;SDS011;52970;46.752;17.108;2022-12-15T01:14:19;61.13;;;35.53;;
13102;SDS011;52970;46.752;17.108;2022-12-15T01:17:03;60.97;;;34.80;;
13102;SDS011;52970;46.752;17.108;2022-12-15T01:19:47;57.53;;;34.60;;
13102;SDS011;52970;46.752;17.108;2022-12-15T01:22:31;56.17;;;32.77;;
13102;SDS011;52970;46.752;17.108;2022-12-15T01:24:56;57.73;;;34.53;;
13102;SDS011;52970;46.752;17.108;2022-12-15T01:27:22;58.77;;;33.40;;
13102;SDS011;52970;46.752;17.108;2022-12-15T01:29:47;56.70;;;33.70;;
13102;SDS011;52970;46.752;17.108;2022-12-15T01:32:12;61.73;;;35.83;;
13102;SDS011;52970;46.752;17.108;2022-12-15T01:34:37;57.40;;;34.67;;
13102;SDS011;52970;46.752;17.108;2022-12-15T01:37:03;59.17;;;35.93;;
13102;SDS011;52970;46.752;17.108;2022-12-15T01:39:28;59.83;;;34.90;;
13102;SDS011;52970;46.752;17.108;2022-12-15T01:42:13;60.53;;;36.17;;
13102;SDS011;52970;46.752;17.108;2022-12-15T01:44:38;59.83;;;36.70;;
13102;SDS011;52970;46.752;17.108;2022-12-15T01:47:04;58.43;;;35.47;;
13102;SDS011;52970;46.752;17.108;2022-12-15T01:49:29;56.43;;;33.80;;
13102;SDS011;52970;46.752;17.108;2022-12-15T01:51:59;55.17;;;33.97;;
13102;SDS011;52970;46.752;17.108;2022-12-15T01:56:54;55.73;;;34.63;;
13102;SDS011;52970;46.752;17.108;2022-12-15T01:59:30;58.07;;;33.93;;
13102;SDS011;52970;46.752;17.108;2022-12-15T02:01:57;56.40;;;32.60;;
13102;SDS011;52970;46.752;17.108;2022-12-15T02:04:22;53.23;;;33.23;;
13102;SDS011;52970;46.752;17.108;2022-12-15T02:06:48;52.97;;;32.77;;
13102;SDS011;52970;46.752;17.108;2022-12-15T02:09:14;56.23;;;34.40;;
13102;SDS011;52970;46.752;17.108;2022-12-15T02:24:25;53.23;;;32.30;;
13102;SDS011;52970;46.752;17.108;2022-12-15T02:32:09;52.10;;;31.27;;
13102;SDS011;52970;46.752;17.108;2022-12-15T02:34:46;54.93;;;31.53;;
13102;SDS011;52970;46.752;17.108;2022-12-15T02:39:38;53.33;;;31.67;;
13102;SDS011;52970;46.752;17.108;2022-12-15T02:42:03;49.10;;;30.07;;
13102;SDS011;52970;46.752;17.108;2022-12-15T02:54:38;50.67;;;30.90;;
13102;SDS011;52970;46.752;17.108;2022-12-15T02:59:42;47.33;;;30.03;;
13102;SDS011;52970;46.752;17.108;2022-12-15T03:02:08;47.30;;;29.40;;
13102;SDS011;52970;46.752;17.108;2022-12-15T03:07:18;52.70;;;31.97;;
13102;SDS011;52970;46.752;17.108;2022-12-15T03:09:43;48.47;;;30.50;;
13102;SDS011;52970;46.752;17.108;2022-12-15T03:12:08;51.13;;;30.33;;
13102;SDS011;52970;46.752;17.108;2022-12-15T03:14:34;53.73;;;31.33;;
13102;SDS011;52970;46.752;17.108;2022-12-15T03:16:59;55.40;;;32.70;;
13102;SDS011;52970;46.752;17.108;2022-12-15T03:19:25;49.80;;;30.83;;
13102;SDS011;52970;46.752;17.108;2022-12-15T03:21:50;52.70;;;30.77;;
13102;SDS011;52970;46.752;17.108;2022-12-15T03:24:16;52.00;;;32.30;;
13102;SDS011;52970;46.752;17.108;2022-12-15T03:26:41;53.33;;;32.67;;
13102;SDS011;52970;46.752;17.108;2022-12-15T03:29:08;61.97;;;34.93;;
13102;SDS011;52970;46.752;17.108;2022-12-15T03:31:33;55.13;;;33.23;;
13102;SDS011;52970;46.752;17.108;2022-12-15T03:34:00;54.23;;;33.33;;
13102;SDS011;52970;46.752;17.108;2022-12-15T03:36:26;62.17;;;35.40;;
13102;SDS011;52970;46.752;17.108;2022-12-15T03:38:51;55.63;;;33.83;;
13102;SDS011;52970;46.752;17.108;2022-12-15T03:41:16;58.97;;;33.90;;
13102;SDS011;52970;46.752;17.108;2022-12-15T03:43:44;56.77;;;34.70;;
13102;SDS011;52970;46.752;17.108;2022-12-15T03:46:12;58.23;;;34.70;;
13102;SDS011;52970;46.752;17.108;2022-12-15T03:48:38;59.33;;;35.27;;
13102;SDS011;52970;46.752;17.108;2022-12-15T03:51:03;59.57;;;35.07;;
13102;SDS011;52970;46.752;17.108;2022-12-15T03:53:28;58.20;;;34.90;;
13102;SDS011;52970;46.752;17.108;2022-12-15T03:55:53;58.10;;;34.70;;
13102;SDS011;52970;46.752;17.108;2022-12-15T03:58:19;57.93;;;34.70;;
13102;SDS011;52970;46.752;17.108;2022-12-15T04:00:44;60.60;;;34.80;;
13102;SDS011;52970;46.752;17.108;2022-12-15T04:03:09;68.60;;;37.47;;
13102;SDS011;52970;46.752;17.108;2022-12-15T04:05:35;61.70;;;35.87;;
13102;SDS011;52970;46.752;17.108;2022-12-15T04:08:00;59.63;;;34.10;;
13102;SDS011;52970;46.752;17.108;2022-12-15T04:10:27;57.33;;;34.30;;
13102;SDS011;52970;46.752;17.108;2022-12-15T04:12:57;62.13;;;36.03;;
13102;SDS011;52970;46.752;17.108;2022-12-15T04:15:22;59.87;;;34.13;;
13102;SDS011;52970;46.752;17.108;2022-12-15T04:17:48;61.37;;;35.93;;
13102;SDS011;52970;46.752;17.108;2022-12-15T04:20:13;59.23;;;34.33;;
13102;SDS011;52970;46.752;17.108;2022-12-15T04:22:39;59.80;;;34.33;;
13102;SDS011;52970;46.752;17.108;2022-12-15T04:25:05;61.83;;;36.07;;
13102;SDS011;52970;46.752;17.108;2022-12-15T04:27:50;59.73;;;36.07;;
13102;SDS011;52970;46.752;17.108;2022-12-15T04:30:34;57.90;;;33.10;;
13102;SDS011;52970;46.752;17.108;2022-12-15T04:33:18;54.43;;;33.10;;
13102;SDS011;52970;46.752;17.108;2022-12-15T04:36:02;60.73;;;34.27;;
13102;SDS011;52970;46.752;17.108;2022-12-15T04:38:47;65.87;;;35.37;;
13102;SDS011;52970;46.752;17.108;2022-12-15T04:41:31;63.07;;;36.20;;
13102;SDS011;52970;46.752;17.108;2022-12-15T04:44:15;64.57;;;35.30;;
13102;SDS011;52970;46.752;17.108;2022-12-15T04:46:59;59.47;;;35.47;;
13102;SDS011;52970;46.752;17.108;2022-12-15T04:49:42;63.40;;;36.83;;
13102;SDS011;52970;46.752;17.108;2022-12-15T04:52:27;62.70;;;36.50;;
13102;SDS011;52970;46.752;17.108;2022-12-15T04:55:11;68.17;;;38.63;;
13102;SDS011;52970;46.752;17.108;2022-12-15T04:57:55;61.27;;;35.97;;
13102;SDS011;52970;46.752;17.108;2022-12-15T05:00:39;63.70;;;35.13;;
13102;SDS011;52970;46.752;17.108;2022-12-15T05:03:22;60.27;;;36.30;;
13102;SDS011;52970;46.752;17.108;2022-12-15T05:06:06;60.70;;;35.60;;
13102;SDS011;52970;46.752;17.108;2022-12-15T05:08:50;65.70;;;34.93;;
13102;SDS011;52970;46.752;17.108;2022-12-15T05:11:34;62.60;;;36.00;;
13102;SDS011;52970;46.752;17.108;2022-12-15T05:14:18;67.07;;;36.37;;
13102;SDS011;52970;46.752;17.108;2022-12-15T05:17:02;62.80;;;35.13;;
13102;SDS011;52970;46.752;17.108;2022-12-15T05:19:46;70.63;;;39.27;;
13102;SDS011;52970;46.752;17.108;2022-12-15T05:22:30;65.50;;;37.60;;
13102;SDS011;52970;46.752;17.108;2022-12-15T05:25:14;64.10;;;35.93;;
13102;SDS011;52970;46.752;17.108;2022-12-15T05:27:58;67.90;;;37.80;;
13102;SDS011;52970;46.752;17.108;2022-12-15T05:30:42;68.37;;;37.23;;
13102;SDS011;52970;46.752;17.108;2022-12-15T05:33:26;69.20;;;37.40;;
13102;SDS011;52970;46.752;17.108;2022-12-15T05:35:53;67.33;;;36.40;;
13102;SDS011;52970;46.752;17.108;2022-12-15T05:38:19;62.97;;;36.07;;
13102;SDS011;52970;46.752;17.108;2022-12-15T05:40:44;64.43;;;35.93;;
13102;SDS011;52970;46.752;17.108;2022-12-15T05:43:10;61.40;;;34.90;;
13102;SDS011;52970;46.752;17.108;2022-12-15T05:45:35;60.47;;;34.80;;
13102;SDS011;52970;46.752;17.108;2022-12-15T05:48:00;67.03;;;36.07;;
13102;SDS011;52970;46.752;17.108;2022-12-15T05:50:26;64.37;;;36.10;;
13102;SDS011;52970;46.752;17.108;2022-12-15T05:52:51;60.17;;;34.87;;
13102;SDS011;52970;46.752;17.108;2022-12-15T05:55:17;61.37;;;35.17;;
13102;SDS011;52970;46.752;17.108;2022-12-15T05:57:43;62.13;;;36.43;;
13102;SDS011;52970;46.752;17.108;2022-12-15T06:00:08;60.83;;;34.67;;
13102;SDS011;52970;46.752;17.108;2022-12-15T06:02:34;71.10;;;37.80;;
13102;SDS011;52970;46.752;17.108;2022-12-15T06:04:59;59.47;;;35.27;;
13102;SDS011;52970;46.752;17.108;2022-12-15T06:07:24;65.23;;;35.57;;
13102;SDS011;52970;46.752;17.108;2022-12-15T06:09:49;65.27;;;36.13;;
13102;SDS011;52970;46.752;17.108;2022-12-15T06:12:15;64.73;;;35.77;;
13102;SDS011;52970;46.752;17.108;2022-12-15T06:14:40;62.27;;;34.60;;
13102;SDS011;52970;46.752;17.108;2022-12-15T06:17:06;62.27;;;34.77;;
13102;SDS011;52970;46.752;17.108;2022-12-15T06:19:31;74.87;;;40.17;;
13102;SDS011;52970;46.752;17.108;2022-12-15T06:21:56;65.90;;;37.13;;
13102;SDS011;52970;46.752;17.108;2022-12-15T06:24:22;65.83;;;36.17;;
13102;SDS011;52970;46.752;17.108;2022-12-15T06:26:48;66.77;;;38.00;;
13102;SDS011;52970;46.752;17.108;2022-12-15T06:29:13;69.97;;;39.10;;
13102;SDS011;52970;46.752;17.108;2022-12-15T06:31:39;67.43;;;36.53;;
13102;SDS011;52970;46.752;17.108;2022-12-15T06:34:06;66.73;;;37.87;;
13102;SDS011;52970;46.752;17.108;2022-12-15T06:36:31;66.97;;;37.67;;
13102;SDS011;52970;46.752;17.108;2022-12-15T06:39:00;66.97;;;37.53;;
13102;SDS011;52970;46.752;17.108;2022-12-15T06:41:26;66.13;;;36.30;;
13102;SDS011;52970;46.752;17.108;2022-12-15T06:43:53;67.73;;;37.40;;
13102;SDS011;52970;46.752;17.108;2022-12-15T06:46:20;65.73;;;36.90;;
13102;SDS011;52970;46.752;17.108;2022-12-15T06:48:45;70.73;;;40.00;;
13102;SDS011;52970;46.752;17.108;2022-12-15T06:51:11;66.97;;;37.13;;
13102;SDS011;52970;46.752;17.108;2022-12-15T06:53:37;72.40;;;41.43;;
13102;SDS011;52970;46.752;17.108;2022-12-15T06:56:05;66.73;;;37.03;;
13102;SDS011;52970;46.752;17.108;2022-12-15T06:58:31;69.47;;;36.57;;
13102;SDS011;52970;46.752;17.108;2022-12-15T07:00:57;66.03;;;35.73;;
13102;SDS011;52970;46.752;17.108;2022-12-15T07:03:22;72.23;;;38.43;;
13102;SDS011;52970;46.752;17.108;2022-12-15T07:05:48;69.03;;;36.90;;
13102;SDS011;52970;46.752;17.108;2022-12-15T07:08:14;71.67;;;38.80;;
13102;SDS011;52970;46.752;17.108;2022-12-15T07:10:41;66.73;;;37.40;;
13102;SDS011;52970;46.752;17.108;2022-12-15T07:13:11;68.93;;;36.60;;
13102;SDS011;52970;46.752;17.108;2022-12-15T07:15:37;69.50;;;37.30;;
13102;SDS011;52970;46.752;17.108;2022-12-15T07:18:02;63.73;;;36.07;;
13102;SDS011;52970;46.752;17.108;2022-12-15T07:20:28;63.63;;;36.77;;
13102;SDS011;52970;46.752;17.108;2022-12-15T07:22:53;64.23;;;35.47;;
13102;SDS011;52970;46.752;17.108;2022-12-15T07:25:18;59.87;;;34.67;;
13102;SDS011;52970;46.752;17.108;2022-12-15T07:27:45;66.13;;;35.73;;
13102;SDS011;52970;46.752;17.108;2022-12-15T07:30:11;60.17;;;36.37;;
13102;SDS011;52970;46.752;17.108;2022-12-15T07:32:36;61.80;;;34.20;;
13102;SDS011;52970;46.752;17.108;2022-12-15T07:35:02;66.87;;;36.27;;
13102;SDS011;52970;46.752;17.108;2022-12-15T07:37:29;65.67;;;36.30;;
13102;SDS011;52970;46.752;17.108;2022-12-15T07:39:54;64.33;;;36.23;;
13102;SDS011;52970;46.752;17.108;2022-12-15T07:42:19;64.33;;;35.13;;
13102;SDS011;52970;46.752;17.108;2022-12-15T07:44:45;61.30;;;34.83;;
13102;SDS011;52970;46.752;17.108;2022-12-15T07:47:10;61.67;;;34.13;;
13102;SDS011;52970;46.752;17.108;2022-12-15T07:49:35;67.93;;;37.60;;
13102;SDS011;52970;46.752;17.108;2022-12-15T07:52:01;69.07;;;36.13;;
13102;SDS011;52970;46.752;17.108;2022-12-15T07:54:26;62.90;;;36.13;;
13102;SDS011;52970;46.752;17.108;2022-12-15T07:56:51;77.53;;;40.43;;
13102;SDS011;52970;46.752;17.108;2022-12-15T07:59:17;72.83;;;38.53;;
13102;SDS011;52970;46.752;17.108;2022-12-15T08:01:42;74.97;;;38.33;;
13102;SDS011;52970;46.752;17.108;2022-12-15T08:04:07;69.97;;;38.07;;
13102;SDS011;52970;46.752;17.108;2022-12-15T08:06:34;72.20;;;38.67;;
13102;SDS011;52970;46.752;17.108;2022-12-15T08:08:59;72.10;;;37.33;;
13102;SDS011;52970;46.752;17.108;2022-12-15T08:11:25;71.63;;;37.50;;
13102;SDS011;52970;46.752;17.108;2022-12-15T08:13:50;68.77;;;35.70;;
13102;SDS011;52970;46.752;17.108;2022-12-15T08:16:17;69.87;;;36.93;;
13102;SDS011;52970;46.752;17.108;2022-12-15T08:18:42;72.70;;;37.07;;
13102;SDS011;52970;46.752;17.108;2022-12-15T08:21:08;74.00;;;37.50;;
13102;SDS011;52970;46.752;17.108;2022-12-15T08:23:33;71.33;;;37.67;;
13102;SDS011;52970;46.752;17.108;2022-12-15T08:26:03;72.37;;;38.10;;
13102;SDS011;52970;46.752;17.108;2022-12-15T08:28:29;65.23;;;35.83;;
13102;SDS011;52970;46.752;17.108;2022-12-15T08:31:00;67.57;;;37.17;;
13102;SDS011;52970;46.752;17.108;2022-12-15T08:33:26;70.70;;;37.63;;
13102;SDS011;52970;46.752;17.108;2022-12-15T08:35:51;65.53;;;36.80;;
13102;SDS011;52970;46.752;17.108;2022-12-15T08:38:16;68.47;;;37.57;;
13102;SDS011;52970;46.752;17.108;2022-12-15T08:40:41;61.73;;;35.33;;
13102;SDS011;52970;46.752;17.108;2022-12-15T08:43:07;67.93;;;36.20;;
13102;SDS011;52970;46.752;17.108;2022-12-15T08:45:32;65.07;;;34.53;;
13102;SDS011;52970;46.752;17.108;2022-12-15T08:47:57;66.10;;;34.60;;
13102;SDS011;52970;46.752;17.108;2022-12-15T08:50:23;67.23;;;34.40;;
13102;SDS011;52970;46.752;17.108;2022-12-15T08:52:48;63.40;;;35.47;;
13102;SDS011;52970;46.752;17.108;2022-12-15T08:55:13;63.20;;;35.87;;
13102;SDS011;52970;46.752;17.108;2022-12-15T08:57:39;65.17;;;36.13;;
13102;SDS011;52970;46.752;17.108;2022-12-15T09:00:04;64.93;;;36.50;;
13102;SDS011;52970;46.752;17.108;2022-12-15T09:02:30;60.97;;;34.17;;
13102;SDS011;52970;46.752;17.108;2022-12-15T09:04:55;70.33;;;36.97;;
13102;SDS011;52970;46.752;17.108;2022-12-15T09:07:21;65.30;;;34.90;;
13102;SDS011;52970;46.752;17.108;2022-12-15T09:09:46;64.07;;;33.93;;
13102;SDS011;52970;46.752;17.108;2022-12-15T09:12:11;68.03;;;36.23;;
13102;SDS011;52970;46.752;17.108;2022-12-15T09:14:37;67.17;;;37.37;;
13102;SDS011;52970;46.752;17.108;2022-12-15T09:17:02;66.07;;;35.63;;
13102;SDS011;52970;46.752;17.108;2022-12-15T09:19:27;56.23;;;33.23;;
13102;SDS011;52970;46.752;17.108;2022-12-15T09:21:53;56.40;;;32.10;;
13102;SDS011;52970;46.752;17.108;2022-12-15T09:24:18;58.13;;;35.00;;
13102;SDS011;52970;46.752;17.108;2022-12-15T09:26:43;55.10;;;32.40;;
13102;SDS011;52970;46.752;17.108;2022-12-15T09:29:09;60.50;;;33.13;;
13102;SDS011;52970;46.752;17.108;2022-12-15T09:31:36;57.50;;;33.50;;
13102;SDS011;52970;46.752;17.108;2022-12-15T09:34:01;61.97;;;35.10;;
13102;SDS011;52970;46.752;17.108;2022-12-15T09:36:28;59.30;;;34.07;;
13102;SDS011;52970;46.752;17.108;2022-12-15T09:38:54;62.17;;;33.83;;
13102;SDS011;52970;46.752;17.108;2022-12-15T09:44:30;59.97;;;34.60;;
13102;SDS011;52970;46.752;17.108;2022-12-15T09:51:50;60.53;;;32.73;;
13102;SDS011;52970;46.752;17.108;2022-12-15T09:54:17;61.77;;;34.40;;
13102;SDS011;52970;46.752;17.108;2022-12-15T09:56:48;64.07;;;35.90;;
13102;SDS011;52970;46.752;17.108;2022-12-15T09:59:32;63.97;;;34.67;;
13102;SDS011;52970;46.752;17.108;2022-12-15T10:04:42;65.77;;;35.40;;
13102;SDS011;52970;46.752;17.108;2022-12-15T10:09:45;67.13;;;35.17;;
13102;SDS011;52970;46.752;17.108;2022-12-15T10:12:13;67.40;;;37.20;;
13102;SDS011;52970;46.752;17.108;2022-12-15T10:14:41;66.27;;;37.60;;
13102;SDS011;52970;46.752;17.108;2022-12-15T10:19:47;65.50;;;36.33;;
13102;SDS011;52970;46.752;17.108;2022-12-15T10:22:15;66.20;;;36.27;;
13102;SDS011;52970;46.752;17.108;2022-12-15T10:24:43;70.30;;;36.93;;
13102;SDS011;52970;46.752;17.108;2022-12-15T10:29:42;69.27;;;37.70;;
13102;SDS011;52970;46.752;17.108;2022-12-15T10:32:16;71.30;;;39.20;;
13102;SDS011;52970;46.752;17.108;2022-12-15T10:34:41;68.03;;;36.93;;
13102;SDS011;52970;46.752;17.108;2022-12-15T10:37:10;70.57;;;37.97;;
13102;SDS011;52970;46.752;17.108;2022-12-15T10:39:38;66.47;;;37.33;;
13102;SDS011;52970;46.752;17.108;2022-12-15T10:42:11;71.33;;;40.57;;
13102;SDS011;52970;46.752;17.108;2022-12-15T10:44:37;72.63;;;40.10;;
13102;SDS011;52970;46.752;17.108;2022-12-15T10:49:43;77.40;;;42.37;;
13102;SDS011;52970;46.752;17.108;2022-12-15T10:52:18;79.00;;;40.37;;
13102;SDS011;52970;46.752;17.108;2022-12-15T10:54:46;71.70;;;40.57;;
13102;SDS011;52970;46.752;17.108;2022-12-15T10:57:22;76.33;;;41.07;;
13102;SDS011;52970;46.752;17.108;2022-12-15T10:59:47;74.73;;;41.60;;
13102;SDS011;52970;46.752;17.108;2022-12-15T11:04:58;70.73;;;38.70;;
13102;SDS011;52970;46.752;17.108;2022-12-15T11:07:25;69.30;;;38.57;;
13102;SDS011;52970;46.752;17.108;2022-12-15T11:09:56;66.77;;;37.97;;
13102;SDS011;52970;46.752;17.108;2022-12-15T11:12:23;66.43;;;37.40;;
13102;SDS011;52970;46.752;17.108;2022-12-15T11:17:46;72.10;;;40.00;;
13102;SDS011;52970;46.752;17.108;2022-12-15T11:20:16;66.93;;;38.90;;
13102;SDS011;52970;46.752;17.108;2022-12-15T11:22:45;67.07;;;37.83;;
13102;SDS011;52970;46.752;17.108;2022-12-15T11:27:45;70.53;;;39.57;;
13102;SDS011;52970;46.752;17.108;2022-12-15T11:30:18;66.90;;;37.97;;
13102;SDS011;52970;46.752;17.108;2022-12-15T11:32:53;66.23;;;37.33;;
13102;SDS011;52970;46.752;17.108;2022-12-15T11:35:24;72.93;;;38.50;;
13102;SDS011;52970;46.752;17.108;2022-12-15T11:37:54;64.97;;;38.50;;
13102;SDS011;52970;46.752;17.108;2022-12-15T11:40:33;65.23;;;37.07;;
13102;SDS011;52970;46.752;17.108;2022-12-15T11:48:20;69.50;;;39.37;;
13102;SDS011;52970;46.752;17.108;2022-12-15T11:58:34;63.47;;;36.70;;
13102;SDS011;52970;46.752;17.108;2022-12-15T12:01:17;69.30;;;40.20;;
13102;SDS011;52970;46.752;17.108;2022-12-15T12:03:51;73.27;;;40.67;;
13102;SDS011;52970;46.752;17.108;2022-12-15T12:06:23;72.40;;;41.20;;
13102;SDS011;52970;46.752;17.108;2022-12-15T12:12:23;70.67;;;40.63;;
13102;SDS011;52970;46.752;17.108;2022-12-15T12:17:11;70.77;;;40.10;;
13102;SDS011;52970;46.752;17.108;2022-12-15T12:19:50;68.83;;;40.20;;
13102;SDS011;52970;46.752;17.108;2022-12-15T12:24:45;78.10;;;41.67;;
13102;SDS011;52970;46.752;17.108;2022-12-15T12:35:15;72.00;;;41.50;;
13102;SDS011;52970;46.752;17.108;2022-12-15T12:37:58;69.10;;;40.03;;
13102;SDS011;52970;46.752;17.108;2022-12-15T12:40:27;68.77;;;40.20;;
13102;SDS011;52970;46.752;17.108;2022-12-15T12:42:56;69.03;;;39.57;;
13102;SDS011;52970;46.752;17.108;2022-12-15T12:45:23;71.00;;;40.50;;
13102;SDS011;52970;46.752;17.108;2022-12-15T12:47:50;78.80;;;41.80;;
13102;SDS011;52970;46.752;17.108;2022-12-15T12:50:20;74.03;;;40.60;;
13102;SDS011;52970;46.752;17.108;2022-12-15T12:52:47;70.00;;;38.47;;
13102;SDS011;52970;46.752;17.108;2022-12-15T12:57:54;72.07;;;39.00;;
13102;SDS011;52970;46.752;17.108;2022-12-15T13:00:21;74.30;;;41.13;;
13102;SDS011;52970;46.752;17.108;2022-12-15T13:05:31;67.47;;;39.53;;
13102;SDS011;52970;46.752;17.108;2022-12-15T13:10:33;65.23;;;39.23;;
13102;SDS011;52970;46.752;17.108;2022-12-15T13:15:44;65.60;;;38.57;;
13102;SDS011;52970;46.752;17.108;2022-12-15T13:18:18;65.60;;;37.50;;
13102;SDS011;52970;46.752;17.108;2022-12-15T13:20:44;67.83;;;37.57;;
13102;SDS011;52970;46.752;17.108;2022-12-15T13:38:58;64.23;;;36.63;;
13102;SDS011;52970;46.752;17.108;2022-12-15T13:41:23;59.60;;;35.17;;
13102;SDS011;52970;46.752;17.108;2022-12-15T13:43:48;64.97;;;36.07;;
13102;SDS011;52970;46.752;17.108;2022-12-15T13:46:15;67.23;;;36.13;;
13102;SDS011;52970;46.752;17.108;2022-12-15T13:53:56;59.77;;;34.40;;
13102;SDS011;52970;46.752;17.108;2022-12-15T13:56:24;71.80;;;37.40;;
13102;SDS011;52970;46.752;17.108;2022-12-15T13:58:53;59.23;;;35.13;;
13102;SDS011;52970;46.752;17.108;2022-12-15T14:01:24;62.40;;;36.50;;
13102;SDS011;52970;46.752;17.108;2022-12-15T14:04:03;67.93;;;36.10;;
13102;SDS011;52970;46.752;17.108;2022-12-15T14:06:39;63.43;;;37.27;;
13102;SDS011;52970;46.752;17.108;2022-12-15T14:09:10;60.60;;;34.00;;
13102;SDS011;52970;46.752;17.108;2022-12-15T14:11:37;61.93;;;35.33;;
13102;SDS011;52970;46.752;17.108;2022-12-15T14:14:05;65.37;;;36.10;;
13102;SDS011;52970;46.752;17.108;2022-12-15T14:16:32;62.43;;;34.20;;
13102;SDS011;52970;46.752;17.108;2022-12-15T14:19:02;58.07;;;35.13;;
13102;SDS011;52970;46.752;17.108;2022-12-15T14:21:28;65.57;;;35.93;;
13102;SDS011;52970;46.752;17.108;2022-12-15T14:23:54;63.93;;;35.03;;
13102;SDS011;52970;46.752;17.108;2022-12-15T14:26:24;63.03;;;35.50;;
13102;SDS011;52970;46.752;17.108;2022-12-15T14:28:57;66.93;;;35.87;;
13102;SDS011;52970;46.752;17.108;2022-12-15T14:31:23;59.93;;;34.00;;
13102;SDS011;52970;46.752;17.108;2022-12-15T14:33:50;66.37;;;36.27;;
13102;SDS011;52970;46.752;17.108;2022-12-15T14:36:18;71.63;;;37.73;;
13102;SDS011;52970;46.752;17.108;2022-12-15T14:38:45;62.40;;;36.73;;
13102;SDS011;52970;46.752;17.108;2022-12-15T14:41:23;64.90;;;35.80;;
13102;SDS011;52970;46.752;17.108;2022-12-15T14:43:49;68.33;;;36.10;;
13102;SDS011;52970;46.752;17.108;2022-12-15T14:46:18;60.37;;;35.30;;
13102;SDS011;52970;46.752;17.108;2022-12-15T14:49:01;62.53;;;35.77;;
13102;SDS011;52970;46.752;17.108;2022-12-15T14:51:28;64.13;;;34.70;;
13102;SDS011;52970;46.752;17.108;2022-12-15T14:53:53;74.57;;;39.87;;
13102;SDS011;52970;46.752;17.108;2022-12-15T14:56:21;68.53;;;37.83;;
13102;SDS011;52970;46.752;17.108;2022-12-15T15:03:57;77.57;;;42.73;;
13102;SDS011;52970;46.752;17.108;2022-12-15T15:06:26;75.30;;;41.13;;
13102;SDS011;52970;46.752;17.108;2022-12-15T15:08:53;74.50;;;39.10;;
13102;SDS011;52970;46.752;17.108;2022-12-15T15:11:23;75.10;;;41.20;;
13102;SDS011;52970;46.752;17.108;2022-12-15T15:13:52;74.23;;;39.47;;
13102;SDS011;52970;46.752;17.108;2022-12-15T15:16:18;62.33;;;35.93;;
13102;SDS011;52970;46.752;17.108;2022-12-15T15:18:47;65.60;;;36.53;;
13102;SDS011;52970;46.752;17.108;2022-12-15T15:21:35;68.23;;;38.10;;
13102;SDS011;52970;46.752;17.108;2022-12-15T15:26:27;77.93;;;41.93;;
13102;SDS011;52970;46.752;17.108;2022-12-15T15:28:53;70.93;;;37.73;;
13102;SDS011;52970;46.752;17.108;2022-12-15T15:33:51;70.13;;;38.47;;
13102;SDS011;52970;46.752;17.108;2022-12-15T15:36:17;75.37;;;42.97;;
13102;SDS011;52970;46.752;17.108;2022-12-15T15:38:42;66.37;;;37.90;;
13102;SDS011;52970;46.752;17.108;2022-12-15T15:43:35;67.57;;;37.83;;
13102;SDS011;52970;46.752;17.108;2022-12-15T15:46:02;69.50;;;38.27;;
13102;SDS011;52970;46.752;17.108;2022-12-15T15:48:30;74.57;;;39.83;;
13102;SDS011;52970;46.752;17.108;2022-12-15T15:50:57;85.30;;;44.77;;
13102;SDS011;52970;46.752;17.108;2022-12-15T15:53:23;71.73;;;40.37;;
13102;SDS011;52970;46.752;17.108;2022-12-15T15:55:50;84.90;;;46.40;;
13102;SDS011;52970;46.752;17.108;2022-12-15T15:58:16;103.63;;;53.90;;
13102;SDS011;52970;46.752;17.108;2022-12-15T16:00:41;101.77;;;50.20;;
13102;SDS011;52970;46.752;17.108;2022-12-15T16:03:07;87.37;;;46.50;;
13102;SDS011;52970;46.752;17.108;2022-12-15T16:05:32;87.50;;;48.27;;
13102;SDS011;52970;46.752;17.108;2022-12-15T16:07:58;87.33;;;47.53;;
13102;SDS011;52970;46.752;17.108;2022-12-15T16:10:24;104.23;;;54.27;;
13102;SDS011;52970;46.752;17.108;2022-12-15T16:12:52;97.27;;;51.87;;
13102;SDS011;52970;46.752;17.108;2022-12-15T16:15:21;88.80;;;48.97;;
13102;SDS011;52970;46.752;17.108;2022-12-15T16:17:48;84.80;;;44.07;;
13102;SDS011;52970;46.752;17.108;2022-12-15T16:20:14;93.17;;;49.17;;
13102;SDS011;52970;46.752;17.108;2022-12-15T16:22:41;89.17;;;47.90;;
13102;SDS011;52970;46.752;17.108;2022-12-15T16:25:15;96.50;;;49.00;;
13102;SDS011;52970;46.752;17.108;2022-12-15T16:27:41;100.60;;;51.10;;
13102;SDS011;52970;46.752;17.108;2022-12-15T16:30:16;91.23;;;46.20;;
13102;SDS011;52970;46.752;17.108;2022-12-15T16:32:42;80.90;;;44.03;;
13102;SDS011;52970;46.752;17.108;2022-12-15T16:35:07;87.90;;;46.40;;
13102;SDS011;52970;46.752;17.108;2022-12-15T16:37:33;100.77;;;53.77;;
13102;SDS011;52970;46.752;17.108;2022-12-15T16:39:58;99.53;;;56.43;;
13102;SDS011;52970;46.752;17.108;2022-12-15T16:42:23;85.83;;;47.67;;
13102;SDS011;52970;46.752;17.108;2022-12-15T16:44:49;91.97;;;52.70;;